Página principal
METAR-TAF:

METAR-TAF

Aeroportos :

Koror, Babelthuap Island, Palau

latitude: 07-22N, longitude: 134-32E, altura: 54 m

Observação actual do tempo

O boletim foi feito há 28 minutos, às 01:50 UTC
Vento 11 kt de es-nordeste com rajadas de 18 kt
Temperatura 30°C
Humidade 75%
Pressão 1012 hPa
Visibilidade: 24.1 km
Nuvens fragmentadasa uma altura de 1500 ft, Cumulus congestus.
Nuvens fragmentadasa uma altura de 12000 ft
Nuvens fragmentadasa uma altura de 30000 ft

METAR: PTRO 280150Z 07011G18KT 15SM BKN015TCU BKN120 BKN300 30/25 A2987 RMK TCU VC ALQDS

Hora: 11:18 (02:18 UTC)

Previsão

O boletim foi feito há 2 horas e 47 minutos, às 23:31 UTC
Previsão válida de 28 às 00 UTC a 28 às 24 UTC
Vento 12 kt de nordeste com rajadas de 18 kt
Visibilidade: 10 km
Nuvens dispersasa uma altura de 1600 ft
Nuvens dispersasa uma altura de 12000 ft
aguaceiros nas vizinhanças

TAF: PTRO 272331Z 2800/2824 05012G18KT P6SM VCSH SCT016 SCT120

Observações e previsões do tempo de mais de 4000 aeroportos (mensagens METAR e TAF).

As estações disponíveis são os pontos amarelos e vermelhos sobre o mapa.

Mova o rato sobre o mapa para ver o nome da estação.

Depois clique no ponto para visualizar as observações e previsões meteorológicas.

Para alterar o mapa : clique nos botões verdes com uma cruz preta para aumentar o zoom; no botão verde com uma pitada de zoom; ou nas setas verdes para mapas adjacentes.


METAR-TAF: